createdAt,value
2022-11-25T00:00:16.949Z,4.98
2022-11-25T00:01:16.881Z,4.95
2022-11-25T00:02:16.948Z,4.84
2022-11-25T00:03:16.729Z,4.87
2022-11-25T00:04:16.605Z,4.83
2022-11-25T00:05:16.672Z,4.84
2022-11-25T00:06:16.434Z,4.92
2022-11-25T00:07:16.404Z,4.91
2022-11-25T00:08:16.263Z,5.00
2022-11-25T00:09:16.176Z,5.10
2022-11-25T00:10:16.095Z,5.02
2022-11-25T00:11:16.004Z,5.06
2022-11-25T00:12:15.919Z,5.06
2022-11-25T00:13:15.836Z,5.16
2022-11-25T00:14:15.746Z,5.11
2022-11-25T00:15:15.663Z,5.14
2022-11-25T00:16:15.695Z,5.14
2022-11-25T00:17:15.512Z,5.08
2022-11-25T00:18:15.405Z,5.10
2022-11-25T00:19:15.318Z,5.11
2022-11-25T00:20:15.233Z,5.17
2022-11-25T00:21:15.300Z,5.10
2022-11-25T00:22:15.061Z,5.16
2022-11-25T00:23:15.224Z,5.17
2022-11-25T00:24:14.890Z,5.05
2022-11-25T00:25:14.801Z,5.08
2022-11-25T00:26:14.724Z,5.13
2022-11-25T00:27:14.634Z,5.03
2022-11-25T00:28:14.547Z,5.13
2022-11-25T00:29:14.467Z,5.11
2022-11-25T00:30:14.372Z,5.14
2022-11-25T00:31:14.303Z,5.13
2022-11-25T00:32:14.200Z,5.13
2022-11-25T00:33:14.133Z,5.14
2022-11-25T00:34:14.078Z,5.11
2022-11-25T00:35:13.943Z,5.14
2022-11-25T00:36:13.856Z,5.14
2022-11-25T00:37:13.774Z,5.20
2022-11-25T00:38:13.686Z,5.10
2022-11-25T00:39:13.597Z,5.14
2022-11-25T00:40:13.514Z,5.14
2022-11-25T00:41:13.428Z,5.17
2022-11-25T00:42:13.342Z,5.14
2022-11-25T00:43:13.256Z,5.17
2022-11-25T00:44:13.170Z,5.17
2022-11-25T00:45:13.089Z,5.18
2022-11-25T00:46:13.054Z,5.21
2022-11-25T00:47:13.011Z,5.17
2022-11-25T00:48:12.827Z,5.26
2022-11-25T00:49:12.759Z,5.26
2022-11-25T00:50:12.854Z,5.26
2022-11-25T00:51:12.569Z,5.23
2022-11-25T00:52:12.487Z,5.14
2022-11-25T00:53:12.397Z,5.18
2022-11-25T00:54:12.314Z,5.05
2022-11-25T00:55:12.232Z,5.11
2022-11-25T00:56:12.141Z,5.10
2022-11-25T00:57:12.153Z,5.16
2022-11-25T00:58:11.968Z,5.26
2022-11-25T00:59:11.886Z,5.28
2022-11-25T01:00:11.799Z,5.32
2022-11-25T01:01:11.770Z,5.39
2022-11-25T01:02:11.744Z,5.35
2022-11-25T01:03:11.542Z,5.39
2022-11-25T01:04:11.458Z,5.42
2022-11-25T01:05:11.400Z,5.35
2022-11-25T01:06:11.284Z,5.36
2022-11-25T01:07:11.228Z,5.32
2022-11-25T01:08:11.115Z,5.32
2022-11-25T01:09:11.029Z,5.28
2022-11-25T01:10:10.940Z,5.32
2022-11-25T01:11:11.058Z,5.26
2022-11-25T01:12:11.024Z,5.31
2022-11-25T01:13:10.686Z,5.20
2022-11-25T01:14:10.599Z,5.20
2022-11-25T01:15:10.515Z,5.21
2022-11-25T01:16:10.509Z,5.20
2022-11-25T01:17:10.349Z,5.17
2022-11-25T01:18:10.260Z,5.26
2022-11-25T01:19:10.172Z,5.24
2022-11-25T01:20:10.090Z,5.24
2022-11-25T01:21:10.020Z,5.26
2022-11-25T01:22:09.917Z,5.28
2022-11-25T01:23:09.830Z,5.26
2022-11-25T01:24:09.746Z,5.32
2022-11-25T01:25:09.659Z,5.36
2022-11-25T01:26:09.574Z,5.44
2022-11-25T01:27:09.494Z,5.31
2022-11-25T01:28:09.404Z,5.47
2022-11-25T01:29:09.319Z,5.45
2022-11-25T01:30:09.230Z,5.42
2022-11-25T01:31:09.197Z,5.39
2022-11-25T01:32:09.130Z,5.36
2022-11-25T01:33:08.977Z,5.34
2022-11-25T01:34:08.888Z,5.34
2022-11-25T01:35:08.803Z,5.38
2022-11-25T01:36:08.720Z,5.36
2022-11-25T01:37:08.653Z,5.38
2022-11-25T01:38:08.550Z,5.44
2022-11-25T01:39:08.466Z,5.36
2022-11-25T01:40:08.381Z,5.34
2022-11-25T01:41:08.294Z,5.36
2022-11-25T01:42:08.208Z,5.38
2022-11-25T01:43:08.122Z,5.35
2022-11-25T01:44:08.038Z,5.44
2022-11-25T01:45:09.886Z,5.34
2022-11-25T01:46:07.886Z,5.24
2022-11-25T01:47:07.784Z,5.28
2022-11-25T01:48:07.699Z,5.31
2022-11-25T01:49:07.617Z,5.32
2022-11-25T01:50:07.527Z,5.26
2022-11-25T01:51:07.448Z,5.24
2022-11-25T01:52:07.358Z,5.31
2022-11-25T01:53:07.294Z,5.17
2022-11-25T01:54:07.189Z,5.18
2022-11-25T01:55:07.106Z,5.05
2022-11-25T01:56:07.030Z,4.98
2022-11-25T01:57:06.941Z,4.99
2022-11-25T01:58:06.846Z,5.02
2022-11-25T01:59:06.763Z,4.95
2022-11-25T02:00:06.679Z,4.93
2022-11-25T02:01:06.663Z,5.05
2022-11-25T02:02:06.594Z,5.02
2022-11-25T02:03:06.423Z,4.95
2022-11-25T02:04:06.336Z,4.96
2022-11-25T02:05:06.251Z,4.91
2022-11-25T02:06:06.165Z,5.06
2022-11-25T02:07:06.081Z,5.03
2022-11-25T02:08:05.993Z,5.02
2022-11-25T02:09:05.929Z,4.98
2022-11-25T02:10:05.826Z,5.03
2022-11-25T02:11:05.739Z,4.99
2022-11-25T02:12:05.653Z,5.05
2022-11-25T02:13:05.567Z,5.06
2022-11-25T02:14:05.484Z,4.99
2022-11-25T02:15:05.398Z,4.92
2022-11-25T02:16:05.356Z,4.96
2022-11-25T02:17:05.229Z,5.00
2022-11-25T02:18:05.146Z,4.95
2022-11-25T02:19:05.055Z,5.03
2022-11-25T02:20:04.973Z,5.10
2022-11-25T02:21:04.888Z,5.11
2022-11-25T02:22:04.799Z,5.05
2022-11-25T02:23:04.713Z,5.11
2022-11-25T02:24:04.627Z,5.08
2022-11-25T02:25:04.563Z,5.20
2022-11-25T02:26:04.457Z,5.13
2022-11-25T02:27:04.373Z,5.16
2022-11-25T02:28:04.287Z,5.17
2022-11-25T02:29:04.303Z,5.35
2022-11-25T02:30:04.216Z,5.24
2022-11-25T02:31:04.031Z,5.26
2022-11-25T02:32:04.060Z,5.26
2022-11-25T02:33:03.860Z,5.31
2022-11-25T02:34:03.772Z,5.39
2022-11-25T02:35:03.693Z,5.39
2022-11-25T02:36:03.652Z,5.49
2022-11-25T02:37:03.517Z,5.38
2022-11-25T02:38:03.430Z,5.31
2022-11-25T02:39:03.345Z,5.39
2022-11-25T02:40:03.269Z,5.39
2022-11-25T02:41:03.193Z,5.41
2022-11-25T02:42:03.090Z,5.38
2022-11-25T02:43:03.006Z,5.50
2022-11-25T02:44:02.920Z,5.49
2022-11-25T02:45:02.841Z,5.41
2022-11-25T02:46:02.796Z,5.42
2022-11-25T02:47:02.664Z,5.32
2022-11-25T02:48:02.578Z,5.35
2022-11-25T02:49:10.501Z,5.35
2022-11-25T02:50:02.404Z,5.41
2022-11-25T02:51:02.323Z,5.50
2022-11-25T02:52:02.240Z,5.38
2022-11-25T02:53:02.153Z,5.45
2022-11-25T02:54:02.067Z,5.50
2022-11-25T02:55:01.985Z,5.47
2022-11-25T02:56:01.897Z,5.47
2022-11-25T02:57:01.830Z,5.53
2022-11-25T02:58:01.723Z,5.36
2022-11-25T02:59:01.641Z,5.50
2022-11-25T03:00:01.554Z,5.53
2022-11-25T03:01:01.551Z,5.53
2022-11-25T03:02:01.473Z,5.53
2022-11-25T03:03:01.298Z,5.39
2022-11-25T03:04:01.215Z,5.50
2022-11-25T03:05:01.130Z,5.36
2022-11-25T03:06:01.045Z,5.42
2022-11-25T03:07:00.960Z,5.39
2022-11-25T03:08:00.872Z,5.36
2022-11-25T03:09:00.789Z,5.36
2022-11-25T03:10:00.704Z,5.32
2022-11-25T03:11:00.620Z,5.32
2022-11-25T03:12:00.533Z,5.38
2022-11-25T03:13:00.467Z,5.39
2022-11-25T03:14:00.365Z,5.44
2022-11-25T03:15:00.284Z,5.41
2022-11-25T03:16:00.203Z,5.39
2022-11-25T03:17:00.215Z,5.49
2022-11-25T03:18:00.172Z,5.50
2022-11-25T03:19:00.246Z,5.44
2022-11-25T03:19:59.853Z,5.52
2022-11-25T03:20:59.769Z,5.53
2022-11-25T03:21:59.682Z,5.75
2022-11-25T03:22:59.601Z,5.65
2022-11-25T03:23:59.514Z,5.77
2022-11-25T03:24:59.430Z,5.71
2022-11-25T03:25:59.339Z,5.74
2022-11-25T03:26:59.255Z,5.83
2022-11-25T03:27:59.170Z,5.89
2022-11-25T03:28:59.117Z,5.80
2022-11-25T03:29:59.001Z,5.92
2022-11-25T03:30:58.914Z,5.93
2022-11-25T03:31:58.865Z,6.10
2022-11-25T03:32:58.745Z,6.06
2022-11-25T03:33:58.662Z,5.97
2022-11-25T03:34:58.576Z,6.04
2022-11-25T03:35:58.490Z,5.99
2022-11-25T03:36:58.477Z,5.92
2022-11-25T03:37:58.324Z,5.88
2022-11-25T03:38:58.237Z,5.90
2022-11-25T03:39:58.152Z,5.88
2022-11-25T03:40:58.066Z,5.78
2022-11-25T03:41:57.986Z,5.80
2022-11-25T03:42:57.899Z,5.88
2022-11-25T03:43:57.816Z,5.88
2022-11-25T03:44:57.750Z,5.85
2022-11-25T03:45:57.672Z,5.89
2022-11-25T03:46:57.558Z,5.93
2022-11-25T03:47:57.476Z,5.92
2022-11-25T03:48:57.389Z,5.92
2022-11-25T03:49:57.305Z,5.86
2022-11-25T03:50:57.220Z,5.86
2022-11-25T03:51:57.137Z,5.95
2022-11-25T03:52:57.050Z,5.93
2022-11-25T03:53:56.966Z,5.93
2022-11-25T03:54:56.882Z,5.92
2022-11-25T03:55:56.796Z,5.92
2022-11-25T03:56:56.712Z,5.97
2022-11-25T03:57:56.628Z,5.99
2022-11-25T03:58:56.544Z,6.06
2022-11-25T03:59:56.461Z,6.08
2022-11-25T04:00:56.439Z,6.07
2022-11-25T04:01:56.358Z,6.04
2022-11-25T04:02:56.225Z,6.14
2022-11-25T04:03:56.119Z,6.26
2022-11-25T04:04:56.034Z,6.24
2022-11-25T04:05:55.950Z,6.22
2022-11-25T04:06:55.865Z,6.29
2022-11-25T04:07:58.070Z,6.29
2022-11-25T04:08:55.695Z,6.22
2022-11-25T04:09:55.613Z,6.32
2022-11-25T04:10:55.530Z,6.33
2022-11-25T04:11:55.445Z,6.27
2022-11-25T04:12:55.366Z,6.26
2022-11-25T04:13:55.274Z,6.30
2022-11-25T04:14:55.189Z,6.36
2022-11-25T04:15:55.105Z,6.22
2022-11-25T04:16:55.113Z,6.22
2022-11-25T04:17:54.939Z,6.33
2022-11-25T04:18:54.850Z,6.15
2022-11-25T04:19:54.768Z,6.14
2022-11-25T04:20:54.683Z,6.14
2022-11-25T04:21:54.601Z,6.18
2022-11-25T04:22:54.512Z,6.13
2022-11-25T04:23:54.430Z,6.14
2022-11-25T04:24:54.346Z,6.07
2022-11-25T04:25:54.259Z,6.11
2022-11-25T04:26:54.328Z,6.15
2022-11-25T04:27:54.091Z,6.11
2022-11-25T04:28:54.005Z,6.10
2022-11-25T04:29:53.922Z,6.15
2022-11-25T04:30:53.891Z,6.13
2022-11-25T04:31:53.753Z,6.08
2022-11-25T04:32:53.689Z,6.10
2022-11-25T04:33:53.583Z,6.10
2022-11-25T04:34:53.502Z,6.06
2022-11-25T04:35:53.415Z,6.11
2022-11-25T04:36:53.328Z,6.08
2022-11-25T04:37:53.246Z,6.06
2022-11-25T04:38:53.161Z,6.07
2022-11-25T04:39:53.075Z,6.04
2022-11-25T04:40:52.992Z,6.07
2022-11-25T04:41:53.157Z,6.10
2022-11-25T04:42:57.896Z,6.10
2022-11-25T04:43:52.741Z,6.06
2022-11-25T04:45:14.444Z,6.11
2022-11-25T04:46:13.184Z,6.04
2022-11-25T04:46:52.513Z,5.96
2022-11-25T04:47:52.414Z,6.00
2022-11-25T04:48:52.434Z,6.07
2022-11-25T04:49:52.230Z,6.10
2022-11-25T04:50:52.146Z,6.03
2022-11-25T04:51:52.061Z,6.10
2022-11-25T04:52:51.978Z,6.06
2022-11-25T04:53:51.895Z,6.10
2022-11-25T04:54:52.009Z,6.07
2022-11-25T04:55:51.726Z,6.10
2022-11-25T04:56:51.642Z,6.10
2022-11-25T04:57:51.554Z,6.04
2022-11-25T04:58:51.470Z,6.04
2022-11-25T04:59:51.387Z,6.10
2022-11-25T05:00:51.390Z,6.10
2022-11-25T05:01:51.343Z,6.06
2022-11-25T05:02:51.231Z,6.11
2022-11-25T05:03:57.164Z,6.14
2022-11-25T05:04:50.985Z,5.97
2022-11-25T05:05:50.880Z,6.07
2022-11-25T05:06:50.797Z,6.04
2022-11-25T05:07:50.781Z,6.06
2022-11-25T05:08:50.624Z,6.11
2022-11-25T05:09:50.541Z,6.06
2022-11-25T05:10:50.458Z,6.07
2022-11-25T05:11:50.372Z,6.11
2022-11-25T05:12:50.288Z,6.10
2022-11-25T05:13:50.201Z,6.08
2022-11-25T05:14:50.117Z,6.10
2022-11-25T05:15:50.034Z,6.11
2022-11-25T05:16:50.043Z,6.11
2022-11-25T05:17:49.913Z,6.10
2022-11-25T05:18:49.873Z,6.07
2022-11-25T05:19:49.696Z,6.07
2022-11-25T05:20:49.629Z,6.10
2022-11-25T05:21:49.529Z,6.15
2022-11-25T05:22:49.441Z,6.14
2022-11-25T05:23:54.417Z,6.10
2022-11-25T05:24:49.273Z,6.14
2022-11-25T05:25:49.195Z,6.10
2022-11-25T05:26:49.103Z,6.18
2022-11-25T05:27:49.273Z,6.15
2022-11-25T05:28:48.934Z,6.10
2022-11-25T05:29:54.291Z,6.17
2022-11-25T05:30:48.860Z,6.18
2022-11-25T05:31:48.684Z,6.18
2022-11-25T05:32:48.596Z,6.18
2022-11-25T05:33:48.513Z,6.15
2022-11-25T05:34:48.426Z,6.17
2022-11-25T05:35:48.343Z,6.14
2022-11-25T05:36:48.276Z,6.18
2022-11-25T05:37:48.181Z,6.27
2022-11-25T05:38:48.088Z,6.11
2022-11-25T05:39:48.009Z,6.06
2022-11-25T05:40:47.921Z,6.10
2022-11-25T05:41:47.835Z,6.10
2022-11-25T05:42:47.752Z,6.06
2022-11-25T05:43:47.668Z,6.11
2022-11-25T05:44:47.588Z,5.97
2022-11-25T05:45:47.547Z,6.06
2022-11-25T05:46:47.414Z,5.97
2022-11-25T05:47:47.331Z,5.95
2022-11-25T05:48:47.245Z,5.97
2022-11-25T05:49:47.161Z,5.99
2022-11-25T05:50:47.078Z,5.97
2022-11-25T05:51:47.020Z,6.00
2022-11-25T05:52:46.927Z,6.00
2022-11-25T05:53:46.833Z,5.99
2022-11-25T05:54:46.740Z,6.03
2022-11-25T05:55:46.655Z,5.95
2022-11-25T05:56:46.672Z,5.95
2022-11-25T05:57:46.483Z,5.99
2022-11-25T05:58:46.402Z,5.96
2022-11-25T05:59:46.316Z,5.90
2022-11-25T06:00:46.233Z,5.85
2022-11-25T06:01:46.157Z,5.85
2022-11-25T06:02:46.166Z,5.83
2022-11-25T06:03:46.024Z,5.75
2022-11-25T06:04:45.891Z,5.67
2022-11-25T06:05:45.806Z,5.68
2022-11-25T06:06:45.721Z,5.71
2022-11-25T06:07:45.828Z,5.67
2022-11-25T06:08:45.569Z,5.72
2022-11-25T06:09:45.469Z,5.71
2022-11-25T06:10:45.381Z,5.67
2022-11-25T06:11:45.297Z,5.59
2022-11-25T06:12:45.213Z,5.50
2022-11-25T06:13:45.179Z,5.54
2022-11-25T06:14:45.142Z,5.47
2022-11-25T06:15:45.016Z,5.52
2022-11-25T06:16:44.872Z,5.52
2022-11-25T06:17:44.785Z,5.57
2022-11-25T06:18:44.800Z,5.53
2022-11-25T06:19:44.616Z,5.56
2022-11-25T06:20:44.532Z,5.56
2022-11-25T06:21:44.446Z,5.59
2022-11-25T06:22:44.360Z,5.65
2022-11-25T06:23:44.277Z,5.71
2022-11-25T06:24:46.515Z,5.77
2022-11-25T06:25:44.110Z,5.72
2022-11-25T06:26:44.023Z,5.71
2022-11-25T06:28:11.167Z,5.70
2022-11-25T06:28:43.851Z,5.71
2022-11-25T06:29:43.766Z,5.80
2022-11-25T06:30:43.692Z,5.81
2022-11-25T06:31:43.694Z,5.90
2022-11-25T06:32:43.513Z,5.89
2022-11-25T06:33:43.426Z,5.93
2022-11-25T06:34:43.343Z,5.95
2022-11-25T06:35:43.258Z,5.97
2022-11-25T06:36:43.176Z,6.00
2022-11-25T06:37:43.088Z,5.97
2022-11-25T06:38:43.002Z,6.13
2022-11-25T06:39:42.919Z,5.97
2022-11-25T06:40:42.856Z,6.18
2022-11-25T06:41:42.749Z,6.10
2022-11-25T06:42:42.665Z,6.10
2022-11-25T06:43:42.581Z,6.10
2022-11-25T06:44:42.495Z,6.14
2022-11-25T06:45:42.410Z,6.13
2022-11-25T06:46:42.370Z,6.30
2022-11-25T06:47:42.242Z,6.14
2022-11-25T06:48:42.158Z,6.32
2022-11-25T06:49:42.073Z,6.29
2022-11-25T06:50:41.988Z,6.34
2022-11-25T06:51:41.904Z,6.29
2022-11-25T06:52:41.823Z,6.26
2022-11-25T06:53:41.738Z,6.29
2022-11-25T06:54:41.649Z,6.29
2022-11-25T06:55:41.567Z,6.34
2022-11-25T06:56:41.498Z,6.42
2022-11-25T06:57:41.412Z,6.41
2022-11-25T06:58:41.314Z,6.52
2022-11-25T06:59:41.229Z,6.51
2022-11-25T07:00:41.147Z,6.54
2022-11-25T07:01:41.248Z,6.55
2022-11-25T07:02:46.624Z,6.50
2022-11-25T07:03:40.892Z,6.55
2022-11-25T07:04:40.808Z,6.52
2022-11-25T07:05:40.722Z,6.54
2022-11-25T07:06:40.638Z,6.52
2022-11-25T07:07:40.674Z,6.54
2022-11-25T07:08:40.470Z,6.70
2022-11-25T07:09:40.389Z,6.69
2022-11-25T07:10:40.300Z,6.73
2022-11-25T07:11:40.217Z,6.68
2022-11-25T07:12:40.159Z,6.70
2022-11-25T07:13:40.050Z,6.73
2022-11-25T07:14:39.960Z,6.76
2022-11-25T07:15:40.009Z,6.86
2022-11-25T07:16:39.796Z,7.03
2022-11-25T07:17:39.711Z,7.08
2022-11-25T07:18:39.626Z,7.16
2022-11-25T07:19:39.542Z,7.09
2022-11-25T07:20:39.460Z,7.20
2022-11-25T07:21:39.373Z,7.16
2022-11-25T07:22:39.289Z,7.34
2022-11-25T07:23:39.206Z,7.37
2022-11-25T07:24:39.222Z,7.45
2022-11-25T07:25:39.038Z,7.45
2022-11-25T07:26:38.952Z,7.64
2022-11-25T07:27:38.870Z,7.68
2022-11-25T07:28:38.804Z,7.85
2022-11-25T07:31:22.199Z,8.00
2022-11-25T07:31:38.917Z,8.19
2022-11-25T07:32:38.449Z,8.21
2022-11-25T07:33:38.425Z,8.22
2022-11-25T07:34:38.281Z,8.30
2022-11-25T07:35:38.198Z,8.27
2022-11-25T07:36:38.116Z,8.25
2022-11-25T07:37:38.031Z,8.27
2022-11-25T07:38:42.119Z,8.24
2022-11-25T07:39:38.127Z,8.21
2022-11-25T07:40:37.780Z,8.24
2022-11-25T07:41:37.698Z,8.25
2022-11-25T07:42:37.614Z,8.25
2022-11-25T07:43:37.531Z,8.25
2022-11-25T07:44:37.473Z,8.22
2022-11-25T07:45:37.361Z,8.27
2022-11-25T07:46:37.327Z,8.12
2022-11-25T07:47:37.199Z,8.27
2022-11-25T07:48:37.118Z,8.30
2022-11-25T07:49:37.263Z,8.24
2022-11-25T07:50:36.948Z,8.29
2022-11-25T07:51:36.865Z,8.29
2022-11-25T07:52:36.782Z,8.36
2022-11-25T07:53:36.696Z,8.39
2022-11-25T07:54:36.613Z,8.48
2022-11-25T07:55:36.531Z,8.39
2022-11-25T07:56:36.449Z,8.44
2022-11-25T07:57:36.360Z,8.47
2022-11-25T07:58:37.669Z,8.44
2022-11-25T07:59:36.512Z,8.40
2022-11-25T08:00:36.132Z,8.39
2022-11-25T08:01:36.132Z,8.40
2022-11-25T08:02:36.008Z,8.48
2022-11-25T08:03:35.862Z,8.39
2022-11-25T08:04:35.782Z,8.40
2022-11-25T08:05:35.700Z,8.48
2022-11-25T08:06:35.621Z,8.50
2022-11-25T08:07:36.810Z,8.43
2022-11-25T08:08:35.455Z,8.51
2022-11-25T08:09:35.872Z,8.52
2022-11-25T08:10:35.282Z,8.48
2022-11-25T08:11:35.349Z,8.52
2022-11-25T08:12:35.117Z,8.55
2022-11-25T08:13:35.034Z,8.60
2022-11-25T08:14:34.951Z,8.69
2022-11-25T08:15:34.928Z,8.69
2022-11-25T08:16:34.820Z,8.73
2022-11-25T08:17:34.700Z,8.77
2022-11-25T08:18:34.625Z,8.77
2022-11-25T08:19:35.002Z,8.82
2022-11-25T08:20:34.455Z,8.90
2022-11-25T08:21:34.369Z,8.97
2022-11-25T08:22:34.288Z,8.98
2022-11-25T08:23:34.203Z,9.09
2022-11-25T08:24:34.124Z,9.16
2022-11-25T08:25:34.039Z,9.14
2022-11-25T08:26:33.956Z,9.10
2022-11-25T08:27:33.875Z,9.13
2022-11-25T08:28:33.791Z,9.17
2022-11-25T08:29:34.089Z,9.22
2022-11-25T08:30:33.625Z,9.25
2022-11-25T08:31:33.596Z,9.32
2022-11-25T08:32:33.491Z,9.35
2022-11-25T08:33:33.383Z,9.34
2022-11-25T08:34:33.295Z,9.31
2022-11-25T08:35:33.213Z,9.34
2022-11-25T08:36:33.134Z,9.32
2022-11-25T08:37:33.049Z,9.31
2022-11-25T08:38:32.966Z,9.35
2022-11-25T08:40:02.803Z,9.29
2022-11-25T08:40:32.806Z,9.32
2022-11-25T08:41:32.720Z,9.37
2022-11-25T08:42:32.640Z,9.37
2022-11-25T08:43:32.557Z,9.38
2022-11-25T08:44:32.575Z,9.37
2022-11-25T08:45:32.392Z,9.31
2022-11-25T08:46:32.374Z,9.40
2022-11-25T08:47:32.228Z,9.40
2022-11-25T08:48:32.165Z,9.38
2022-11-25T08:49:38.914Z,9.53
2022-11-25T08:50:31.984Z,9.47
2022-11-25T08:51:31.899Z,9.38
2022-11-25T08:52:31.870Z,9.42
2022-11-25T08:53:31.736Z,9.56
2022-11-25T08:54:31.658Z,9.61
2022-11-25T08:55:31.572Z,9.52
2022-11-25T08:56:31.490Z,9.42
2022-11-25T08:57:31.407Z,9.58
2022-11-25T08:58:31.326Z,9.65
2022-11-25T08:59:31.344Z,9.63
2022-11-25T09:00:31.164Z,9.56
2022-11-25T09:01:31.282Z,9.58
2022-11-25T09:02:31.047Z,9.60
2022-11-25T09:03:30.914Z,9.58
2022-11-25T09:04:30.858Z,9.61
2022-11-25T09:05:30.751Z,9.52
2022-11-25T09:06:30.818Z,9.49
2022-11-25T09:07:31.092Z,9.49
2022-11-25T09:08:30.506Z,9.42
2022-11-25T09:09:30.427Z,9.45
2022-11-25T09:10:30.342Z,9.52
2022-11-25T09:11:30.361Z,9.42
2022-11-25T09:12:30.175Z,9.43
2022-11-25T09:13:30.290Z,9.40
2022-11-25T09:14:30.055Z,9.45
2022-11-25T09:15:29.927Z,9.50
2022-11-25T09:16:29.899Z,9.45
2022-11-25T09:17:29.762Z,9.52
2022-11-25T09:18:29.687Z,9.47
2022-11-25T09:19:29.599Z,9.45
2022-11-25T09:20:29.536Z,9.50
2022-11-25T09:21:29.433Z,9.56
2022-11-25T09:22:29.354Z,9.61
2022-11-25T09:23:29.269Z,9.61
2022-11-25T09:24:29.188Z,9.65
2022-11-25T09:25:29.117Z,9.53
2022-11-25T09:26:29.027Z,9.61
2022-11-25T09:27:28.943Z,9.72
2022-11-25T09:28:28.858Z,9.67
2022-11-25T09:29:28.774Z,9.70
2022-11-25T09:30:28.697Z,9.75
2022-11-25T09:31:28.697Z,9.75
2022-11-25T09:32:28.532Z,9.65
2022-11-25T09:33:28.448Z,9.78
2022-11-25T09:34:28.365Z,9.61
2022-11-25T09:35:28.287Z,9.56
2022-11-25T09:36:28.221Z,9.46
2022-11-25T09:37:28.119Z,9.43
2022-11-25T09:38:28.038Z,9.45
2022-11-25T09:39:27.955Z,9.47
2022-11-25T09:40:27.875Z,9.49
2022-11-25T09:41:27.790Z,9.42
2022-11-25T09:42:27.710Z,9.52
2022-11-25T09:43:27.626Z,9.42
2022-11-25T09:44:27.546Z,9.43
2022-11-25T09:45:27.464Z,9.45
2022-11-25T09:46:27.590Z,9.42
2022-11-25T09:47:27.300Z,9.34
2022-11-25T09:48:27.221Z,9.29
2022-11-25T09:49:27.134Z,9.34
2022-11-25T09:50:27.054Z,9.32
2022-11-25T09:51:26.972Z,9.27
2022-11-25T09:52:26.908Z,9.22
2022-11-25T09:53:26.809Z,9.20
2022-11-25T09:54:26.727Z,9.28
2022-11-25T09:55:26.640Z,9.24
2022-11-25T09:56:26.559Z,9.20
2022-11-25T09:57:26.476Z,9.27
2022-11-25T09:58:26.545Z,9.27
2022-11-25T09:59:26.311Z,9.19
2022-11-25T10:00:26.231Z,9.16
2022-11-25T10:01:26.146Z,9.20
2022-11-25T10:02:26.223Z,9.20
2022-11-25T10:03:26.063Z,9.16
2022-11-25T10:04:25.898Z,9.17
2022-11-25T10:05:25.820Z,9.14
2022-11-25T10:06:25.851Z,9.19
2022-11-25T10:07:25.653Z,9.09
2022-11-25T10:08:25.589Z,9.05
2022-11-25T10:09:25.484Z,9.12
2022-11-25T10:10:25.407Z,9.09
2022-11-25T10:11:25.322Z,9.16
2022-11-25T10:12:25.241Z,9.09
2022-11-25T10:13:25.156Z,9.13
2022-11-25T10:14:25.076Z,9.10
2022-11-25T10:15:24.991Z,9.05
2022-11-25T10:16:25.018Z,9.14
2022-11-25T10:17:24.826Z,9.03
2022-11-25T10:18:24.745Z,9.03
2022-11-25T10:19:24.662Z,8.93
2022-11-25T10:20:24.584Z,8.95
2022-11-25T10:21:24.496Z,8.91
2022-11-25T10:22:24.418Z,8.95
2022-11-25T10:23:28.157Z,8.95
2022-11-25T10:24:24.270Z,9.00
2022-11-25T10:25:24.165Z,8.97
2022-11-25T10:26:24.084Z,8.95
2022-11-25T10:27:24.000Z,8.94
2022-11-25T10:28:23.919Z,9.09
2022-11-25T10:29:23.836Z,9.10
2022-11-25T10:30:23.770Z,8.93
2022-11-25T10:31:23.998Z,8.84
2022-11-25T10:32:23.588Z,9.03
2022-11-25T10:33:23.505Z,9.05
2022-11-25T10:34:23.424Z,9.02
2022-11-25T10:35:23.338Z,8.95
2022-11-25T10:36:23.256Z,9.02
2022-11-25T10:37:23.172Z,9.03
2022-11-25T10:38:23.092Z,9.14
2022-11-25T10:39:23.011Z,9.06
2022-11-25T10:40:22.946Z,9.09
2022-11-25T10:41:22.842Z,9.12
2022-11-25T10:42:22.761Z,9.10
2022-11-25T10:43:26.086Z,9.14
2022-11-25T10:44:22.597Z,9.03
2022-11-25T10:45:22.512Z,9.12
2022-11-25T10:46:22.572Z,9.22
2022-11-25T10:47:22.443Z,9.28
2022-11-25T10:48:22.267Z,9.19
2022-11-25T10:49:22.183Z,9.20
2022-11-25T10:50:22.100Z,9.12
2022-11-25T10:51:22.019Z,9.19
2022-11-25T10:52:21.935Z,9.19
2022-11-25T10:53:21.852Z,9.22
2022-11-25T10:54:27.655Z,9.28
2022-11-25T10:55:21.688Z,9.32
2022-11-25T10:56:21.624Z,9.19
2022-11-25T10:57:21.523Z,9.20
2022-11-25T10:58:21.440Z,9.34
2022-11-25T10:59:21.356Z,9.40
2022-11-25T11:00:21.276Z,9.45
2022-11-25T11:01:21.251Z,9.63
2022-11-25T11:02:21.169Z,9.58
2022-11-25T11:03:21.105Z,9.64
2022-11-25T11:04:20.948Z,9.61
2022-11-25T11:05:20.862Z,9.75
2022-11-25T11:06:20.780Z,9.67
2022-11-25T11:07:20.779Z,9.71
2022-11-25T11:08:20.616Z,9.83
2022-11-25T11:09:20.533Z,9.82
2022-11-25T11:10:20.470Z,9.93
2022-11-25T11:11:20.372Z,9.98
2022-11-25T11:12:20.311Z,9.78
2022-11-25T11:13:20.209Z,9.83
2022-11-25T11:14:20.128Z,9.71
2022-11-25T11:15:20.042Z,9.71
2022-11-25T11:16:20.039Z,9.72
2022-11-25T11:17:19.880Z,9.70
2022-11-25T11:18:19.900Z,9.85
2022-11-25T11:19:19.715Z,9.82
2022-11-25T11:20:19.637Z,9.82
2022-11-25T11:21:19.705Z,9.88
2022-11-25T11:22:19.474Z,9.80
2022-11-25T11:23:19.393Z,9.74
2022-11-25T11:24:19.309Z,9.80
2022-11-25T11:25:19.228Z,9.83
2022-11-25T11:26:19.149Z,9.82
2022-11-25T11:27:19.069Z,9.98
2022-11-25T11:28:19.018Z,9.89
2022-11-25T11:29:18.901Z,9.97
2022-11-25T11:30:18.822Z,10.01
2022-11-25T11:31:18.805Z,9.97
2022-11-25T11:32:18.709Z,10.00
2022-11-25T11:33:18.577Z,9.93
2022-11-25T11:34:18.496Z,9.92
2022-11-25T11:35:18.419Z,10.03
2022-11-25T11:36:18.489Z,10.21
2022-11-25T11:37:18.250Z,10.23
2022-11-25T11:38:18.172Z,10.26
2022-11-25T11:39:18.086Z,10.16
2022-11-25T11:40:18.007Z,10.25
2022-11-25T11:41:17.924Z,10.33
2022-11-25T11:42:17.855Z,10.25
2022-11-25T11:43:17.772Z,10.26
2022-11-25T11:44:17.702Z,10.44
2022-11-25T11:45:17.600Z,10.41
2022-11-25T11:46:17.574Z,10.56
2022-11-25T11:47:17.440Z,10.59
2022-11-25T11:48:17.361Z,10.60
2022-11-25T11:49:17.275Z,10.56
2022-11-25T11:50:17.199Z,10.80
2022-11-25T11:51:17.118Z,10.81
2022-11-25T11:52:17.038Z,10.63
2022-11-25T11:53:16.953Z,10.51
2022-11-25T11:54:16.877Z,10.55
2022-11-25T11:55:16.793Z,10.59
2022-11-25T11:56:34.886Z,10.47
2022-11-25T11:57:16.632Z,10.58
2022-11-25T11:58:16.552Z,10.58
2022-11-25T11:59:16.470Z,10.59
2022-11-25T12:00:16.413Z,10.51
2022-11-25T12:01:16.312Z,10.51
2022-11-25T12:02:16.375Z,10.44
2022-11-25T12:03:16.228Z,10.43
2022-11-25T12:04:16.069Z,10.53
2022-11-25T12:05:15.989Z,10.46
2022-11-25T12:06:15.907Z,10.55
2022-11-25T12:07:15.828Z,10.47
2022-11-25T12:08:15.748Z,10.62
2022-11-25T12:09:15.668Z,10.41
2022-11-25T12:10:15.585Z,10.51
2022-11-25T12:11:15.505Z,10.53
2022-11-25T12:12:15.425Z,10.62
2022-11-25T12:13:15.345Z,10.63
2022-11-25T12:14:15.262Z,10.74
2022-11-25T12:15:15.181Z,10.95
2022-11-25T12:16:15.237Z,11.11
2022-11-25T12:17:15.024Z,11.31
2022-11-25T12:18:14.942Z,11.20
2022-11-25T12:19:14.862Z,11.14
2022-11-25T12:20:14.783Z,10.93
2022-11-25T12:21:14.703Z,10.81
2022-11-25T12:22:14.622Z,10.93
2022-11-25T12:23:14.544Z,10.88
2022-11-25T12:24:14.462Z,10.95
2022-11-25T12:25:14.382Z,10.93
2022-11-25T12:26:14.300Z,10.95
2022-11-25T12:27:14.225Z,10.95
2022-11-25T12:28:14.145Z,11.00
2022-11-25T12:29:14.063Z,10.92
2022-11-25T12:30:13.981Z,10.96
2022-11-25T12:31:14.023Z,10.95
2022-11-25T12:32:13.840Z,10.96
2022-11-25T12:33:13.742Z,10.95
2022-11-25T12:34:13.663Z,10.91
2022-11-25T12:35:13.584Z,10.95
2022-11-25T12:36:13.506Z,11.02
2022-11-25T12:37:15.208Z,11.00
2022-11-25T12:38:13.343Z,11.00
2022-11-25T12:39:13.262Z,10.93
2022-11-25T12:40:13.182Z,10.99
2022-11-25T12:41:13.104Z,10.93
2022-11-25T12:42:13.024Z,10.95
2022-11-25T12:43:12.946Z,10.95
2022-11-25T12:44:12.871Z,10.95
2022-11-25T12:45:12.785Z,10.98
2022-11-25T12:46:12.774Z,10.95
2022-11-25T12:47:12.624Z,10.98
2022-11-25T12:48:13.694Z,11.00
2022-11-25T12:49:12.463Z,11.00
2022-11-25T12:50:12.385Z,10.98
2022-11-25T12:51:12.304Z,11.00
2022-11-25T12:52:12.223Z,10.83
2022-11-25T12:53:12.144Z,10.85
2022-11-25T12:54:12.063Z,10.88
2022-11-25T12:55:11.987Z,10.85
2022-11-25T12:56:11.905Z,10.81
2022-11-25T12:57:11.830Z,10.78
2022-11-25T12:58:11.820Z,10.91
2022-11-25T12:59:11.665Z,10.75
2022-11-25T13:00:40.032Z,10.71
2022-11-25T13:01:11.558Z,10.71
2022-11-25T13:02:11.541Z,10.75
2022-11-25T13:03:14.038Z,10.69
2022-11-25T13:04:11.295Z,10.75
2022-11-25T13:05:39.086Z,10.71
2022-11-25T13:06:11.101Z,10.58
2022-11-25T13:07:11.072Z,10.55
2022-11-25T13:08:10.942Z,10.58
2022-11-25T13:09:10.862Z,10.51
2022-11-25T13:10:10.779Z,10.55
2022-11-25T13:11:10.892Z,10.58
2022-11-25T13:12:11.027Z,10.51
2022-11-25T13:13:16.332Z,10.56
2022-11-25T13:14:10.905Z,10.55
2022-11-25T13:15:10.703Z,10.59